ADDS METAR Data INFO
IDs: Format: Raw Decoded Include TAF

Data at: 1737 UTC 25 Feb 2018

KHFJ 251710Z AUTO 23004KT 10SM CLR 07/M01 A3011 RMK AO2
KHFJ 251650Z AUTO 17004KT 10SM CLR 06/M01 A3012 RMK AO2
KHFJ 251630Z AUTO 15005KT 10SM CLR 06/M01 A3011 RMK AO2
KHFJ 251610Z AUTO 16005KT 10SM CLR 06/M01 A3010 RMK AO2
KHFJ 251550Z AUTO 17006KT 10SM CLR 05/M01 A3011 RMK AO2
KHFJ 251530Z AUTO 18005KT 10SM CLR 04/00 A3010 RMK AO2
KHFJ 251510Z AUTO 00000KT 10SM CLR 03/00 A3009 RMK AO2
KHFJ 251450Z AUTO 00000KT 10SM CLR 02/00 A3008 RMK AO2
KHFJ 251430Z AUTO 00000KT 10SM CLR 01/01 A3008 RMK AO2
KHFJ 251410Z AUTO 00000KT 10SM CLR 00/00 A3007 RMK AO2
KHFJ 251350Z AUTO 00000KT 10SM CLR 00/00 A3007 RMK AO2
KHFJ 251330Z AUTO 15003KT 10SM CLR 00/00 A3006 RMK AO2
KHFJ 251310Z AUTO 00000KT 10SM CLR 00/00 A3005 RMK AO2
KHFJ 251250Z AUTO 16003KT 7SM CLR M01/M01 A3004 RMK AO2
KHFJ 251230Z AUTO 18003KT 10SM CLR 00/00 A3003 RMK AO2
KHFJ 251210Z AUTO 00000KT 7SM CLR 00/00 A3003 RMK AO2
KHFJ 251150Z AUTO 00000KT 7SM CLR 00/00 A3002 RMK AO2
KHFJ 251130Z AUTO 23003KT 10SM CLR 00/00 A3002 RMK AO2
KHFJ 251110Z AUTO 20003KT 10SM CLR 00/00 A3001 RMK AO2
KHFJ 251050Z AUTO 18004KT 10SM CLR 00/00 A3001 RMK AO2
KHFJ 251030Z AUTO 19003KT 10SM CLR 00/00 A3000 RMK AO2
KHFJ 251010Z AUTO 20003KT 10SM CLR 00/00 A3000 RMK AO2
KHFJ 250950Z AUTO 19003KT 7SM CLR 00/00 A3000 RMK AO2
KHFJ 250930Z AUTO 21004KT 7SM CLR 00/00 A3000 RMK AO2
KHFJ 250910Z AUTO 20003KT 10SM CLR 00/00 A2999 RMK AO2
KHFJ 250850Z AUTO 19004KT 10SM CLR 00/00 A3000 RMK AO2
KHFJ 250830Z AUTO 19003KT 10SM CLR 00/00 A3000 RMK AO2
KHFJ 250810Z AUTO 19004KT 10SM CLR 00/00 A3000 RMK AO2
KHFJ 250750Z AUTO 21004KT 10SM CLR 00/00 A3000 RMK AO2
KHFJ 250730Z AUTO 22004KT 10SM CLR 00/00 A3000 RMK AO2
KHFJ 250710Z AUTO 22005KT 10SM CLR 00/00 A3001 RMK AO2
KHFJ 250650Z AUTO 23005KT 10SM CLR 00/00 A3001 RMK AO2
KHFJ 250630Z AUTO 23005KT 10SM CLR 00/00 A3000 RMK AO2
KHFJ 250610Z AUTO 23004KT 10SM CLR 00/00 A3000 RMK AO2
KHFJ 250550Z AUTO 23004KT 10SM CLR 01/00 A3000 RMK AO2
KHFJ 250530Z AUTO 22004KT 10SM CLR 01/00 A3000 RMK AO2
KHFJ 250510Z AUTO 23005KT 10SM CLR 01/00 A2999 RMK AO2
KHFJ 250450Z AUTO 25005KT 10SM CLR 02/00 A2999 RMK AO2
KHFJ 250430Z AUTO 26004KT 10SM CLR 02/00 A2998 RMK AO2
KHFJ 250410Z AUTO 27008KT 10SM SCT021 02/00 A2997 RMK AO2
KHFJ 250350Z AUTO 29012G16KT 10SM OVC021 03/01 A2996 RMK AO2
KHFJ 250330Z AUTO 28015KT 10SM OVC023 03/01 A2996 RMK AO2
KHFJ 250310Z AUTO 28012G19KT 10SM OVC023 03/01 A2996 RMK AO2
KHFJ 250250Z AUTO 27017KT 10SM OVC018 03/01 A2995 RMK AO2
KHFJ 250230Z AUTO 27012G18KT 10SM OVC016 03/02 A2993 RMK AO2
KHFJ 250210Z AUTO 26010G21KT 10SM OVC018 03/02 A2991 RMK AO2
KHFJ 250150Z AUTO 28013G23KT 10SM SCT013 OVC020 03/01 A2990 RMK AO2
KHFJ 250130Z AUTO 27014G24KT 10SM OVC013 04/02 A2989 RMK AO2
KHFJ 250110Z AUTO 27012G20KT 10SM OVC015 05/03 A2987 RMK AO2
KHFJ 250050Z AUTO 27014G21KT 10SM BKN015 OVC022 05/03 A2986 RMK AO2
KHFJ 250030Z AUTO 28020G25KT 10SM BKN013 OVC020 06/05 A2983 RMK AO2
KHFJ 250010Z AUTO 26016G25KT 10SM BKN011 OVC018 06/06 A2981 RMK AO2
KHFJ 242350Z AUTO 27013G19KT 10SM BKN005 OVC010 07/07 A2980 RMK AO2
KHFJ 242330Z AUTO 26020G27KT 4SM BR OVC003 07/07 A2979 RMK AO2
KHFJ 242310Z AUTO 26014G19KT 2 1/2SM BR OVC003 07/07 A2976 RMK AO2
KHFJ 242250Z AUTO 26013G21KT 2SM BR OVC003 08/08 A2975 RMK AO2
KHFJ 242230Z AUTO 27013G16KT 7SM OVC003 08/08 A2974 RMK AO2
KHFJ 242210Z AUTO 26011KT 4SM BR OVC003 09/09 A2972 RMK AO2
KHFJ 242150Z AUTO 25007KT 7SM OVC003 09/09 A2970 RMK AO2
KHFJ 242130Z AUTO 26010KT 1/2SM FG OVC003 10/10 A2969 RMK AO2
KHFJ 242110Z AUTO 20005KT 7SM BKN006 OVC019 12/12 A2968 RMK AO2
KHFJ 242050Z AUTO 17003KT 7SM SCT007 BKN019 OVC024 12/12 A2968 RMK AO2 LTG DSNT E
KHFJ 242030Z AUTO 17003KT 10SM SCT005 OVC029 12/12 A2968 RMK AO2 LTG DSNT E AND SE
KHFJ 242010Z AUTO 16004KT 10SM BKN005 OVC029 12/12 A2968 RMK AO2 LTG DSNT E
KHFJ 241950Z AUTO 00000KT 10SM BKN003 BKN022 BKN027 11/11 A2967 RMK AO2 P0007
KHFJ 241930Z AUTO 10013KT 10SM -RA SCT003 SCT032 BKN070 11/11 A2962 RMK AO2 LTG DSNT E P0007
KHFJ 241910Z AUTO 08016KT 5SM RA SCT050 BKN075 OVC080 10/10 A2963 RMK AO2 LTG DSNT SE P0005
KHFJ 241850Z AUTO 04007KT 2 1/2SM RA SCT048 BKN050 OVC065 10/10 A2972 RMK AO2 LTG DSNT E P0026
KHFJ 241830Z AUTO 00000KT 3SM VCTSRA SCT050 OVC065 10/10 A2976 RMK AO2 LTG DSNT S P0014
KHFJ 241810Z AUTO 02003KT 5SM RA SCT024 SCT050 OVC070 10/10 A2975 RMK AO2 LTG DSNT NE P0004
KHFJ 241750Z AUTO 01006KT 1 1/2SM RA SCT006 BKN017 OVC055 10/10 A2977 RMK AO2 LTG DSNT NW THRU NE P0039
KHFJ 241730Z AUTO 03006KT 2 1/2SM +RA SCT004 BKN014 OVC021 10/10 A2978 RMK AO2 LTG DSNT ALQS P0024
KHFJ 241710Z AUTO 02003KT 2 1/2SM TSRA SCT004 BKN026 OVC060 10/10 A2980 RMK AO2 VIS 1 1/2V4 LTG DSNT ALQS P0005
KHFJ 241650Z AUTO 00000KT 3SM TSRA SCT004 BKN022 OVC060 10/10 A2983 RMK AO2 LTG DSNT ALQS P0016
KHFJ 241630Z AUTO 19008KT 4SM +TSRA OVC002 10/10 A2983 RMK AO2 LTG DSNT ALQS P0002
KHFJ 241610Z AUTO 11004KT 2SM VCTS BR OVC002 10/10 A2979 RMK AO2 LTG DSNT SE THRU W
KHFJ 241550Z AUTO 12007KT 3SM BR OVC002 10/10 A2981 RMK AO2 LTG DSNT S
KHFJ 241530Z AUTO 14008KT 3SM BR OVC002 10/10 A2983 RMK AO2 LTG DSNT SW AND W
KHFJ 241510Z AUTO 11005KT 7SM OVC004 10/10 A2982 RMK AO2
KHFJ 241450Z AUTO 13007KT 7SM OVC004 10/10 A2985 RMK AO2
KHFJ 241430Z AUTO 14005KT 7SM OVC004 10/10 A2987 RMK AO2
KHFJ 241410Z AUTO 13004KT 10SM OVC004 10/10 A2988 RMK AO2
KHFJ 241350Z AUTO 15005KT 10SM OVC004 10/10 A2989 RMK AO2
KHFJ 241330Z AUTO 15005KT 10SM OVC006 10/10 A2990 RMK AO2
KHFJ 241310Z AUTO 16004KT 10SM OVC006 10/10 A2990 RMK AO2
KHFJ 241250Z AUTO 14004KT 10SM OVC006 10/10 A2990 RMK AO2
KHFJ 241230Z AUTO 15006KT 10SM OVC008 09/09 A2991 RMK AO2
KHFJ 241210Z AUTO 14006KT 10SM OVC008 09/09 A2991 RMK AO2
KHFJ 241150Z AUTO 14005KT 10SM OVC008 08/08 A2992 RMK AO2
KHFJ 241130Z AUTO 13007KT 10SM OVC008 08/08 A2991 RMK AO2
KHFJ 241110Z AUTO 13007KT 10SM OVC010 08/08 A2991 RMK AO2
KHFJ 241050Z AUTO 13005KT 10SM OVC010 08/08 A2992 RMK AO2
KHFJ 241030Z AUTO 14005KT 10SM OVC010 08/08 A2992 RMK AO2
KHFJ 241010Z AUTO 13006KT 10SM OVC010 08/08 A2991 RMK AO2 LTG DSNT E
KHFJ 240950Z AUTO 14003KT 10SM OVC010 08/08 A2993 RMK AO2 P0002
KHFJ 240930Z AUTO 13006KT 10SM DZ BKN014 OVC021 09/09 A2993 RMK AO2 LTG DSNT E P0001
KHFJ 240910Z AUTO 12010KT 10SM BKN014 OVC022 09/09 A2993 RMK AO2
KHFJ 240850Z AUTO 13007KT 5SM RA SCT014 BKN019 OVC047 09/09 A2994 RMK AO2 LTG DSNT E P0008
KHFJ 240830Z AUTO 12007KT 7SM RA BKN020 BKN024 OVC035 09/09 A2993 RMK AO2 LTG DSNT E P0002
KHFJ 240810Z AUTO 11012G17KT 10SM -RA BKN024 OVC038 10/10 A2994 RMK AO2 LTG DSNT SE P0001
KHFJ 240750Z AUTO 12013G18KT 7SM VCTSRA BKN026 BKN032 OVC043 10/10 A2996 RMK AO2 LTG DSNT E THRU S P0006
KHFJ 240730Z AUTO 13011KT 10SM DZ SCT035 BKN043 OVC070 10/10 A2996 RMK AO2 LTG DSNT E P0003
KHFJ 240710Z AUTO 11013KT 10SM -VCTSRA SCT037 BKN070 OVC095 10/10 A2996 RMK AO2 LTG DSNT E THRU SW P0002
KHFJ 240650Z AUTO 12014G18KT 5SM VCTSRA SCT042 SCT060 OVC070 10/10 A2997 RMK AO2 LTG DSNT NE S AND SW P0039
KHFJ 240630Z AUTO 11010KT 5SM RA SCT015 BKN029 OVC045 10/10 A2999 RMK AO2 LTG DSNT S THRU W P0031
KHFJ 240610Z AUTO 11012KT 3SM +RA SCT018 BKN028 OVC048 10/10 A2998 RMK AO2 LTG DSNT SW P0018
KHFJ 240550Z AUTO 11015G22KT 4SM RA SCT014 BKN043 OVC070 10/10 A2998 RMK AO2 LTG DSNT SE AND SW P0031